createdAt,value
2018-12-24T00:01:06.614Z,5.05
2018-12-24T00:02:15.200Z,6.00
2018-12-24T00:03:24.400Z,5.92
2018-12-24T00:04:33.352Z,5.40
2018-12-24T00:05:43.276Z,6.58
2018-12-24T00:06:52.722Z,9.98
2018-12-24T00:08:01.471Z,8.30
2018-12-24T00:09:11.858Z,6.25
2018-12-24T00:10:21.623Z,6.78
2018-12-24T00:11:32.433Z,6.22
2018-12-24T00:12:39.220Z,5.97
2018-12-24T00:13:45.626Z,6.72
2018-12-24T00:14:53.556Z,7.45
2018-12-24T00:16:01.700Z,5.53
2018-12-24T00:17:09.654Z,6.33
2018-12-24T00:18:19.249Z,5.30
2018-12-24T00:19:25.829Z,5.78
2018-12-24T00:20:32.194Z,5.50
2018-12-24T00:21:38.529Z,4.95
2018-12-24T00:22:44.864Z,4.67
2018-12-24T00:23:52.788Z,4.22
2018-12-24T00:24:59.526Z,4.58
2018-12-24T00:26:06.770Z,4.53
2018-12-24T00:27:15.298Z,5.08
2018-12-24T00:28:24.057Z,4.95
2018-12-24T00:29:33.565Z,4.70
2018-12-24T00:30:42.540Z,5.40
2018-12-24T00:31:51.698Z,4.30
2018-12-24T00:33:00.198Z,4.62
2018-12-24T00:34:10.758Z,4.92
2018-12-24T00:35:19.403Z,4.20
2018-12-24T00:36:27.840Z,6.22
2018-12-24T00:37:36.222Z,5.05
2018-12-24T00:38:43.976Z,8.03
2018-12-24T00:39:52.030Z,5.08
2018-12-24T00:40:59.200Z,5.97
2018-12-24T00:42:15.613Z,6.53
2018-12-24T00:43:17.529Z,6.20
2018-12-24T00:44:28.449Z,6.60
2018-12-24T00:45:39.269Z,7.72
2018-12-24T00:46:48.375Z,6.95
2018-12-24T00:47:57.570Z,8.00
2018-12-24T00:49:07.585Z,6.80
2018-12-24T00:50:15.156Z,8.03
2018-12-24T00:51:24.616Z,8.03
2018-12-24T00:52:31.818Z,9.80
2018-12-24T00:53:40.936Z,10.48
2018-12-24T00:54:50.732Z,9.98
2018-12-24T00:55:57.273Z,9.98
2018-12-24T00:57:03.709Z,11.33
2018-12-24T00:58:15.791Z,11.85
2018-12-24T00:59:25.278Z,11.35
2018-12-24T01:00:32.696Z,11.90
2018-12-24T01:01:39.398Z,13.32
2018-12-24T01:02:45.864Z,11.28
2018-12-24T01:03:52.525Z,13.62
2018-12-24T01:04:59.034Z,13.43
2018-12-24T01:06:07.517Z,14.68
2018-12-24T01:07:16.085Z,13.45
2018-12-24T01:08:24.403Z,18.35
2018-12-24T01:09:31.761Z,16.02
2018-12-24T01:10:39.719Z,15.65
2018-12-24T01:11:46.490Z,15.72
2018-12-24T01:12:54.065Z,15.90
2018-12-24T01:14:01.152Z,15.55
2018-12-24T01:15:08.072Z,14.03
2018-12-24T01:16:15.470Z,16.35
2018-12-24T01:17:22.723Z,16.57
2018-12-24T01:18:29.263Z,16.90
2018-12-24T01:19:37.043Z,15.80
2018-12-24T01:20:43.768Z,17.40
2018-12-24T01:21:50.403Z,14.60
2018-12-24T01:22:57.431Z,17.42
2018-12-24T01:24:03.893Z,21.50
2018-12-24T01:25:10.422Z,18.92
2018-12-24T01:26:17.198Z,18.02
2018-12-24T01:27:23.668Z,16.85
2018-12-24T01:28:30.259Z,16.50
2018-12-24T01:29:36.710Z,17.57
2018-12-24T01:30:43.328Z,15.32
2018-12-24T01:31:49.815Z,19.17
2018-12-24T01:32:56.444Z,15.20
2018-12-24T01:34:03.139Z,18.00
2018-12-24T01:35:09.712Z,15.78
2018-12-24T01:36:16.280Z,12.47
2018-12-24T01:37:22.704Z,12.58
2018-12-24T01:38:28.972Z,12.85
2018-12-24T01:39:35.449Z,11.18
2018-12-24T01:40:43.001Z,13.50
2018-12-24T01:41:51.193Z,12.65
2018-12-24T01:43:04.026Z,13.05
2018-12-24T01:44:13.441Z,10.58
2018-12-24T01:45:20.611Z,11.33
2018-12-24T01:46:27.813Z,10.55
2018-12-24T01:47:36.420Z,10.13
2018-12-24T01:48:47.412Z,8.95
2018-12-24T01:49:56.023Z,11.93
2018-12-24T01:51:07.929Z,9.60
2018-12-24T01:52:16.167Z,7.80
2018-12-24T01:53:26.140Z,8.78
2018-12-24T01:54:33.727Z,8.90
2018-12-24T01:55:41.904Z,7.58
2018-12-24T01:56:49.794Z,7.08
2018-12-24T01:57:57.925Z,9.48
2018-12-24T01:59:05.969Z,9.93
2018-12-24T02:00:16.384Z,9.85
2018-12-24T02:01:22.770Z,8.48
2018-12-24T02:02:30.365Z,9.43
2018-12-24T02:03:36.820Z,8.78
2018-12-24T02:04:43.279Z,9.23
2018-12-24T02:05:51.845Z,10.15
2018-12-24T02:07:01.192Z,10.10
2018-12-24T02:08:07.526Z,10.03
2018-12-24T02:09:15.569Z,8.65
2018-12-24T02:10:22.196Z,9.48
2018-12-24T02:11:28.986Z,9.40
2018-12-24T02:12:42.254Z,11.90
2018-12-24T02:13:44.420Z,9.85
2018-12-24T02:14:50.918Z,8.88
2018-12-24T02:15:57.410Z,9.95
2018-12-24T02:17:03.967Z,10.65
2018-12-24T02:18:10.436Z,11.22
2018-12-24T02:19:16.981Z,10.82
2018-12-24T02:20:23.518Z,8.70
2018-12-24T02:21:29.989Z,10.03
2018-12-24T02:22:36.382Z,8.48
2018-12-24T02:23:42.927Z,9.10
2018-12-24T02:24:49.342Z,10.13
2018-12-24T02:25:55.923Z,10.30
2018-12-24T02:27:03.193Z,9.65
2018-12-24T02:28:12.480Z,8.30
2018-12-24T02:29:19.781Z,8.75
2018-12-24T02:30:27.883Z,11.70
2018-12-24T02:31:34.436Z,9.70
2018-12-24T02:32:41.217Z,10.60
2018-12-24T02:33:49.609Z,11.53
2018-12-24T02:34:56.113Z,9.93
2018-12-24T02:36:02.590Z,11.05
2018-12-24T02:37:09.041Z,10.48
2018-12-24T02:38:15.566Z,9.20
2018-12-24T02:39:22.055Z,13.65
2018-12-24T02:40:28.349Z,9.50
2018-12-24T02:41:34.940Z,11.35
2018-12-24T02:42:52.036Z,10.10
2018-12-24T02:43:51.423Z,11.65
2018-12-24T02:44:57.951Z,10.03
2018-12-24T02:46:04.521Z,10.60
2018-12-24T02:47:11.035Z,10.63
2018-12-24T02:48:17.638Z,10.03
2018-12-24T02:49:24.545Z,12.88
2018-12-24T02:50:31.292Z,11.63
2018-12-24T02:51:41.073Z,12.28
2018-12-24T02:52:50.175Z,11.73
2018-12-24T02:53:58.166Z,14.23
2018-12-24T02:55:04.838Z,10.32
2018-12-24T02:56:13.156Z,11.08
2018-12-24T02:57:21.746Z,12.95
2018-12-24T02:58:28.996Z,10.38
2018-12-24T02:59:35.771Z,13.30
2018-12-24T03:00:43.323Z,12.82
2018-12-24T03:01:51.982Z,11.73
2018-12-24T03:02:59.781Z,10.48
2018-12-24T03:04:07.521Z,12.50
2018-12-24T03:05:15.898Z,11.50
2018-12-24T03:06:24.790Z,13.18
2018-12-24T03:07:32.415Z,9.55
2018-12-24T03:08:40.520Z,9.70
2018-12-24T03:09:49.749Z,11.57
2018-12-24T03:10:57.753Z,8.85
2018-12-24T03:12:07.266Z,13.25
2018-12-24T03:13:13.830Z,10.65
2018-12-24T03:14:20.375Z,12.00
2018-12-24T03:15:27.000Z,10.45
2018-12-24T03:16:33.486Z,12.18
2018-12-24T03:17:39.987Z,12.80
2018-12-24T03:18:46.666Z,11.45
2018-12-24T03:19:53.153Z,10.30
2018-12-24T03:20:59.658Z,12.28
2018-12-24T03:22:06.371Z,10.43
2018-12-24T03:23:13.106Z,10.72
2018-12-24T03:24:20.011Z,11.48
2018-12-24T03:25:28.408Z,10.32
2018-12-24T03:26:36.300Z,11.70
2018-12-24T03:27:43.692Z,12.33
2018-12-24T03:28:52.036Z,12.53
2018-12-24T03:29:58.636Z,11.28
2018-12-24T03:31:07.334Z,11.05
2018-12-24T03:32:15.392Z,13.10
2018-12-24T03:33:23.516Z,13.00
2018-12-24T03:34:30.836Z,11.93
2018-12-24T03:35:37.502Z,12.43
2018-12-24T03:36:48.474Z,12.58
2018-12-24T03:37:55.247Z,11.57
2018-12-24T03:39:01.790Z,12.95
2018-12-24T03:40:08.718Z,12.00
2018-12-24T03:41:15.909Z,12.18
2018-12-24T03:42:24.366Z,13.32
2018-12-24T03:43:30.933Z,14.03
2018-12-24T03:44:37.429Z,14.35
2018-12-24T03:45:45.772Z,14.30
2018-12-24T03:46:54.583Z,13.70
2018-12-24T03:48:03.378Z,16.25
2018-12-24T03:49:11.577Z,12.90
2018-12-24T03:50:20.328Z,18.23
2018-12-24T03:51:27.206Z,13.88
2018-12-24T03:52:34.997Z,14.90
2018-12-24T03:53:43.202Z,15.18
2018-12-24T03:54:51.985Z,12.70
2018-12-24T03:55:58.872Z,13.03
2018-12-24T03:57:06.360Z,13.05
2018-12-24T03:58:13.355Z,12.10
2018-12-24T03:59:21.963Z,16.02
2018-12-24T04:00:29.084Z,11.78
2018-12-24T04:01:35.982Z,20.48
2018-12-24T04:02:43.060Z,17.37
2018-12-24T04:03:49.877Z,16.30
2018-12-24T04:04:56.539Z,14.83
2018-12-24T04:06:03.217Z,17.05
2018-12-24T04:07:09.956Z,12.95
2018-12-24T04:08:16.492Z,11.33
2018-12-24T04:09:25.519Z,11.70
2018-12-24T04:10:33.028Z,11.30
2018-12-24T04:11:42.338Z,11.85
2018-12-24T04:12:50.419Z,10.53
2018-12-24T04:13:57.186Z,10.58
2018-12-24T04:15:04.086Z,12.15
2018-12-24T04:16:10.751Z,12.75
2018-12-24T04:17:17.423Z,13.98
2018-12-24T04:18:23.967Z,12.13
2018-12-24T04:19:30.529Z,12.43
2018-12-24T04:20:37.761Z,14.13
2018-12-24T04:21:44.511Z,15.05
2018-12-24T04:22:51.431Z,15.25
2018-12-24T04:24:00.135Z,12.82
2018-12-24T04:25:09.270Z,14.55
2018-12-24T04:26:18.786Z,11.90
2018-12-24T04:27:27.644Z,13.48
2018-12-24T04:28:36.887Z,13.03
2018-12-24T04:29:45.716Z,12.82
2018-12-24T04:30:54.434Z,11.15
2018-12-24T04:32:03.682Z,12.18
2018-12-24T04:33:13.343Z,12.43
2018-12-24T04:34:22.731Z,11.10
2018-12-24T04:35:31.141Z,10.93
2018-12-24T04:36:40.879Z,11.30
2018-12-24T04:37:49.599Z,8.63
2018-12-24T04:38:57.321Z,10.35
2018-12-24T04:40:04.551Z,12.13
2018-12-24T04:41:13.613Z,11.97
2018-12-24T04:42:22.255Z,13.20
2018-12-24T04:43:32.393Z,12.28
2018-12-24T04:44:39.687Z,12.85
2018-12-24T04:45:49.198Z,10.63
2018-12-24T04:46:57.325Z,14.33
2018-12-24T04:48:05.359Z,12.85
2018-12-24T04:49:13.490Z,13.18
2018-12-24T04:50:22.468Z,13.48
2018-12-24T04:51:29.111Z,15.43
2018-12-24T04:52:35.827Z,14.93
2018-12-24T04:53:42.622Z,14.53
2018-12-24T04:54:53.924Z,12.53
2018-12-24T04:56:00.500Z,13.08
2018-12-24T04:57:07.996Z,12.88
2018-12-24T04:58:14.660Z,14.47
2018-12-24T04:59:25.454Z,11.18
2018-12-24T05:00:32.243Z,13.68
2018-12-24T05:01:38.813Z,11.65
2018-12-24T05:02:45.622Z,10.45
2018-12-24T05:03:52.742Z,12.88
2018-12-24T05:04:59.415Z,12.03
2018-12-24T05:06:06.248Z,11.53
2018-12-24T05:07:12.786Z,11.97
2018-12-24T05:08:19.287Z,10.65
2018-12-24T05:09:27.424Z,10.32
2018-12-24T05:10:33.880Z,10.95
2018-12-24T05:11:40.512Z,7.65
2018-12-24T05:12:48.601Z,8.60
2018-12-24T05:13:54.969Z,8.43
2018-12-24T05:15:01.365Z,9.83
2018-12-24T05:16:08.036Z,8.63
2018-12-24T05:17:14.765Z,10.08
2018-12-24T05:18:21.328Z,9.68
2018-12-24T05:19:28.013Z,8.63
2018-12-24T05:20:34.681Z,11.03
2018-12-24T05:21:41.441Z,9.78
2018-12-24T05:22:48.041Z,8.95
2018-12-24T05:23:54.737Z,8.48
2018-12-24T05:25:01.470Z,9.93
2018-12-24T05:26:08.404Z,9.25
2018-12-24T05:27:15.179Z,8.18
2018-12-24T05:28:21.954Z,8.38
2018-12-24T05:29:28.487Z,7.33
2018-12-24T05:30:35.127Z,8.80
2018-12-24T05:31:41.705Z,9.53
2018-12-24T05:32:48.348Z,9.28
2018-12-24T05:33:54.937Z,7.92
2018-12-24T05:35:01.422Z,8.25
2018-12-24T05:36:08.011Z,10.35
2018-12-24T05:37:14.957Z,9.23
2018-12-24T05:38:21.680Z,7.95
2018-12-24T05:39:28.929Z,9.83
2018-12-24T05:40:36.830Z,12.45
2018-12-24T05:41:43.855Z,10.80
2018-12-24T05:42:50.353Z,10.40
2018-12-24T05:43:56.962Z,12.05
2018-12-24T05:45:03.570Z,10.65
2018-12-24T05:46:09.940Z,11.57
2018-12-24T05:47:16.588Z,11.20
2018-12-24T05:48:23.298Z,12.45
2018-12-24T05:49:29.916Z,13.75
2018-12-24T05:50:36.593Z,12.25
2018-12-24T05:51:43.370Z,14.60
2018-12-24T05:52:50.334Z,16.02
2018-12-24T05:53:56.954Z,14.75
2018-12-24T05:55:03.415Z,16.52
2018-12-24T05:56:10.062Z,16.65
2018-12-24T05:57:16.737Z,16.60
2018-12-24T05:58:23.407Z,16.35
2018-12-24T05:59:29.936Z,14.87
2018-12-24T06:00:36.307Z,15.45
2018-12-24T06:01:42.822Z,15.15
2018-12-24T06:02:49.449Z,14.55
2018-12-24T06:03:57.749Z,11.65
2018-12-24T06:05:04.375Z,11.78
2018-12-24T06:06:10.909Z,11.83
2018-12-24T06:07:17.520Z,13.55
2018-12-24T06:08:24.180Z,13.38
2018-12-24T06:09:30.775Z,14.73
2018-12-24T06:10:37.410Z,14.03
2018-12-24T06:11:44.099Z,14.85
2018-12-24T06:12:50.731Z,14.07
2018-12-24T06:13:58.027Z,16.80
2018-12-24T06:15:05.834Z,15.00
2018-12-24T06:16:13.650Z,18.05
2018-12-24T06:17:21.824Z,19.23
2018-12-24T06:18:28.340Z,18.90
2018-12-24T06:19:36.008Z,18.27
2018-12-24T06:20:42.603Z,18.77
2018-12-24T06:21:50.429Z,19.30
2018-12-24T06:22:57.972Z,18.27
2018-12-24T06:24:04.468Z,17.30
2018-12-24T06:25:10.986Z,15.30
2018-12-24T06:26:17.443Z,20.32
2018-12-24T06:27:23.963Z,17.00
2018-12-24T06:28:30.405Z,17.45
2018-12-24T06:29:36.881Z,17.27
2018-12-24T06:30:43.314Z,18.10
2018-12-24T06:31:49.743Z,14.53
2018-12-24T06:32:56.231Z,17.40
2018-12-24T06:34:02.635Z,16.57
2018-12-24T06:35:09.235Z,18.32
2018-12-24T06:36:15.992Z,19.65
2018-12-24T06:37:22.879Z,16.50
2018-12-24T06:38:29.511Z,17.65
2018-12-24T06:39:36.159Z,17.50
2018-12-24T06:40:42.765Z,17.75
2018-12-24T06:41:49.577Z,20.77
2018-12-24T06:42:57.467Z,19.80
2018-12-24T06:44:06.797Z,19.07
2018-12-24T06:45:12.398Z,18.32
2018-12-24T06:46:19.093Z,16.82
2018-12-24T06:47:26.187Z,16.70
2018-12-24T06:48:32.772Z,20.45
2018-12-24T06:49:39.365Z,20.32
2018-12-24T06:50:46.069Z,17.32
2018-12-24T06:51:52.685Z,18.23
2018-12-24T06:52:59.117Z,19.98
2018-12-24T06:54:05.562Z,17.73
2018-12-24T06:55:12.119Z,19.75
2018-12-24T06:56:18.742Z,19.77
2018-12-24T06:57:25.388Z,18.23
2018-12-24T06:58:32.014Z,19.10
2018-12-24T06:59:38.911Z,17.85
2018-12-24T07:00:45.629Z,18.48
2018-12-24T07:01:52.554Z,18.98
2018-12-24T07:02:59.845Z,21.02
2018-12-24T07:04:06.336Z,20.12
2018-12-24T07:05:12.779Z,20.50
2018-12-24T07:06:20.193Z,19.32
2018-12-24T07:07:26.625Z,25.88
2018-12-24T07:08:33.353Z,18.77
2018-12-24T07:09:39.963Z,18.85
2018-12-24T07:10:46.533Z,21.17
2018-12-24T07:11:53.303Z,20.08
2018-12-24T07:12:59.673Z,24.40
2018-12-24T07:14:15.245Z,21.10
2018-12-24T07:15:15.722Z,20.20
2018-12-24T07:16:22.604Z,20.85
2018-12-24T07:17:29.436Z,21.97
2018-12-24T07:18:37.360Z,23.42
2018-12-24T07:19:44.822Z,21.35
2018-12-24T07:20:51.541Z,22.20
2018-12-24T07:21:59.437Z,18.77
2018-12-24T07:23:06.424Z,18.70
2018-12-24T07:24:13.320Z,22.22
2018-12-24T07:25:22.833Z,19.42
2018-12-24T07:26:29.441Z,20.62
2018-12-24T07:27:35.859Z,19.50
2018-12-24T07:28:42.659Z,19.52
2018-12-24T07:29:49.219Z,19.23
2018-12-24T07:30:56.194Z,17.90
2018-12-24T07:32:03.036Z,18.25
2018-12-24T07:33:16.259Z,16.55
2018-12-24T07:34:32.131Z,20.82
2018-12-24T07:35:32.912Z,21.20
2018-12-24T07:36:42.553Z,19.25
2018-12-24T07:37:51.341Z,18.15
2018-12-24T07:39:01.182Z,20.12
2018-12-24T07:40:10.135Z,19.05
2018-12-24T07:41:21.017Z,20.32
2018-12-24T07:42:29.609Z,20.57
2018-12-24T07:43:41.088Z,21.77
2018-12-24T07:44:49.673Z,21.12
2018-12-24T07:45:59.077Z,21.27
2018-12-24T07:47:08.372Z,17.27
2018-12-24T07:48:17.829Z,16.97
2018-12-24T07:49:27.583Z,18.12
2018-12-24T07:50:34.331Z,17.77
2018-12-24T07:51:42.255Z,17.62
2018-12-24T07:52:49.073Z,14.33
2018-12-24T07:53:55.660Z,13.32
2018-12-24T07:55:02.152Z,12.55
2018-12-24T07:56:11.644Z,11.85
2018-12-24T07:57:40.434Z,12.47
2018-12-24T07:58:50.282Z,11.00
2018-12-24T07:59:59.898Z,12.03
2018-12-24T08:01:09.329Z,12.80
2018-12-24T08:02:15.929Z,9.43
2018-12-24T08:03:22.465Z,9.25
2018-12-24T08:04:31.369Z,9.68
2018-12-24T08:05:37.810Z,9.18
2018-12-24T08:06:44.336Z,8.30
2018-12-24T08:07:50.704Z,9.45
2018-12-24T08:08:57.132Z,7.40
2018-12-24T08:10:03.668Z,8.30
2018-12-24T08:11:10.109Z,9.88
2018-12-24T08:12:16.578Z,9.90
2018-12-24T08:13:23.018Z,9.80
2018-12-24T08:14:33.231Z,7.85
2018-12-24T08:15:37.801Z,9.55
2018-12-24T08:16:44.550Z,9.35
2018-12-24T08:17:50.985Z,12.20
2018-12-24T08:18:57.498Z,10.28
2018-12-24T08:20:04.343Z,9.93
2018-12-24T08:21:11.115Z,10.03
2018-12-24T08:22:19.112Z,8.80
2018-12-24T08:23:28.070Z,10.15
2018-12-24T08:24:34.637Z,6.70
2018-12-24T08:25:42.830Z,6.97
2018-12-24T08:26:51.460Z,7.53
2018-12-24T08:27:59.749Z,7.62
2018-12-24T08:29:09.173Z,6.15
2018-12-24T08:30:21.365Z,7.97
2018-12-24T08:31:30.829Z,6.58
2018-12-24T08:32:39.938Z,5.53
2018-12-24T08:33:52.126Z,6.83
2018-12-24T08:35:03.357Z,7.53
2018-12-24T08:36:14.746Z,6.95
2018-12-24T08:37:24.022Z,9.33
2018-12-24T08:38:30.689Z,7.55
2018-12-24T08:39:37.809Z,7.75
2018-12-24T08:40:51.400Z,8.73
2018-12-24T08:41:58.329Z,10.48
2018-12-24T08:43:05.206Z,11.28
2018-12-24T08:44:13.358Z,10.90
2018-12-24T08:45:20.690Z,12.58
2018-12-24T08:46:27.688Z,12.60
2018-12-24T08:47:34.361Z,12.10
2018-12-24T08:48:42.746Z,12.18
2018-12-24T08:49:49.572Z,12.35
2018-12-24T08:50:56.632Z,9.75
2018-12-24T08:52:03.289Z,10.55
2018-12-24T08:53:10.310Z,13.50
2018-12-24T08:54:17.119Z,9.93
2018-12-24T08:55:23.975Z,15.32
2018-12-24T08:56:30.902Z,10.88
2018-12-24T08:57:37.522Z,12.03
2018-12-24T08:58:44.359Z,11.33
2018-12-24T08:59:50.953Z,12.37
2018-12-24T09:00:57.541Z,11.83
2018-12-24T09:02:10.350Z,11.30
2018-12-24T09:03:17.264Z,11.12
2018-12-24T09:04:24.417Z,11.35
2018-12-24T09:05:31.682Z,11.25
2018-12-24T09:06:38.836Z,12.20
2018-12-24T09:07:46.877Z,11.50
2018-12-24T09:08:54.276Z,11.85
2018-12-24T09:10:04.740Z,12.65
2018-12-24T09:11:11.479Z,10.75
2018-12-24T09:12:19.253Z,11.88
2018-12-24T09:13:25.917Z,12.05
2018-12-24T09:14:34.042Z,10.03
2018-12-24T09:15:41.055Z,10.53
2018-12-24T09:16:48.026Z,11.30
2018-12-24T09:17:54.525Z,12.63
2018-12-24T09:19:03.278Z,10.40
2018-12-24T09:20:10.480Z,9.13
2018-12-24T09:21:17.072Z,9.83
2018-12-24T09:22:23.693Z,9.40
2018-12-24T09:23:31.953Z,9.98
2018-12-24T09:24:38.969Z,10.28
2018-12-24T09:25:47.569Z,8.65
2018-12-24T09:26:58.835Z,10.30
2018-12-24T09:28:07.516Z,8.20
2018-12-24T09:29:19.466Z,6.62
2018-12-24T09:30:28.741Z,6.28
2018-12-24T09:31:37.302Z,5.37
2018-12-24T09:32:47.218Z,6.12
2018-12-24T09:33:55.906Z,4.85
2018-12-24T09:35:04.741Z,6.22
2018-12-24T09:36:13.381Z,6.97
2018-12-24T09:37:21.858Z,5.72
2018-12-24T09:38:29.788Z,5.85
2018-12-24T09:39:39.649Z,4.90
2018-12-24T09:40:49.461Z,5.03
2018-12-24T09:41:58.322Z,4.28
2018-12-24T09:43:06.852Z,6.53
2018-12-24T09:44:15.760Z,4.45
2018-12-24T09:45:25.612Z,5.78
2018-12-24T09:46:32.781Z,6.30
2018-12-24T09:47:39.918Z,6.05
2018-12-24T09:48:46.592Z,7.58
2018-12-24T09:49:53.195Z,6.00
2018-12-24T09:50:59.777Z,6.28
2018-12-24T09:52:06.766Z,6.22
2018-12-24T09:53:13.661Z,9.63
2018-12-24T09:54:20.244Z,7.20
2018-12-24T09:55:28.962Z,5.60
2018-12-24T09:56:37.129Z,5.67
2018-12-24T09:57:45.102Z,7.25
2018-12-24T09:58:52.325Z,6.85
2018-12-24T10:00:02.738Z,6.97
2018-12-24T10:01:13.527Z,8.25
2018-12-24T10:02:25.962Z,6.60
2018-12-24T10:03:42.056Z,6.95
2018-12-24T10:04:56.636Z,5.40
2018-12-24T10:06:20.033Z,6.10
2018-12-24T10:07:41.399Z,5.15
2018-12-24T10:08:49.885Z,5.58
2018-12-24T10:09:57.190Z,6.22
2018-12-24T10:11:04.913Z,7.55
2018-12-24T10:12:11.622Z,7.30
2018-12-24T10:13:18.313Z,5.90
2018-12-24T10:14:24.973Z,6.87
2018-12-24T10:15:33.460Z,6.80
2018-12-24T10:16:40.025Z,7.17
2018-12-24T10:17:46.544Z,8.45
2018-12-24T10:18:53.180Z,8.30
2018-12-24T10:19:59.982Z,8.55
2018-12-24T10:21:10.129Z,7.97
2018-12-24T10:22:16.756Z,8.05
2018-12-24T10:23:23.557Z,8.15
2018-12-24T10:24:30.108Z,7.17
2018-12-24T10:25:39.803Z,8.75
2018-12-24T10:26:52.534Z,8.93
2018-12-24T10:27:59.716Z,8.50
2018-12-24T10:29:08.396Z,9.13
2018-12-24T10:30:17.430Z,10.13
2018-12-24T10:31:26.123Z,6.45
2018-12-24T10:32:38.320Z,10.15
2018-12-24T10:33:46.996Z,8.63
2018-12-24T10:34:55.096Z,6.72
2018-12-24T10:36:09.432Z,7.42
2018-12-24T10:37:22.312Z,6.85
2018-12-24T10:38:33.022Z,6.25
2018-12-24T10:39:40.234Z,7.95
2018-12-24T10:40:58.934Z,7.95
2018-12-24T10:42:08.717Z,9.40
2018-12-24T10:43:15.624Z,9.55
2018-12-24T10:44:23.602Z,7.65
2018-12-24T10:45:30.303Z,9.15
2018-12-24T10:46:36.957Z,9.08
2018-12-24T10:47:43.629Z,8.18
2018-12-24T10:48:52.612Z,6.47
2018-12-24T10:49:59.581Z,7.90
2018-12-24T10:51:06.421Z,7.78
2018-12-24T10:52:15.115Z,9.68
2018-12-24T10:53:24.014Z,11.45
2018-12-24T10:54:30.660Z,8.40
2018-12-24T10:55:37.597Z,8.85
2018-12-24T10:56:47.572Z,6.70
2018-12-24T10:57:59.181Z,7.72
2018-12-24T10:59:09.006Z,8.80
2018-12-24T11:00:19.502Z,9.40
2018-12-24T11:01:29.171Z,8.30
2018-12-24T11:02:40.928Z,5.92
2018-12-24T11:03:53.598Z,5.62
2018-12-24T11:05:03.084Z,6.75
2018-12-24T11:06:11.748Z,9.60
2018-12-24T11:07:25.394Z,8.23
2018-12-24T11:08:36.851Z,7.92
2018-12-24T11:09:46.652Z,9.20
2018-12-24T11:10:56.137Z,5.78
2018-12-24T11:12:06.821Z,5.60
2018-12-24T11:13:16.459Z,6.87
2018-12-24T11:14:23.760Z,6.33
2018-12-24T11:15:30.467Z,6.50
2018-12-24T11:16:37.297Z,6.95
2018-12-24T11:17:44.392Z,7.20
2018-12-24T11:18:54.419Z,7.22
2018-12-24T11:20:03.110Z,6.67
2018-12-24T11:21:13.668Z,8.33
2018-12-24T11:22:20.351Z,7.35
2018-12-24T11:23:28.448Z,7.08
2018-12-24T11:24:35.289Z,7.58
2018-12-24T11:25:42.266Z,7.58
2018-12-24T11:26:48.912Z,6.87
2018-12-24T11:27:56.058Z,7.50
2018-12-24T11:29:05.064Z,6.65
2018-12-24T11:30:14.381Z,7.62
2018-12-24T11:31:22.710Z,6.20
2018-12-24T11:32:33.620Z,8.18
2018-12-24T11:33:45.479Z,8.98
2018-12-24T11:34:52.011Z,9.08
2018-12-24T11:35:58.949Z,7.28
2018-12-24T11:37:26.465Z,5.95
2018-12-24T11:38:33.435Z,6.85
2018-12-24T11:39:42.220Z,7.17
2018-12-24T11:40:50.252Z,7.35
2018-12-24T11:42:02.442Z,8.23
2018-12-24T11:43:11.280Z,9.58
2018-12-24T11:44:19.225Z,13.05
2018-12-24T11:45:33.610Z,10.98
2018-12-24T11:46:36.357Z,13.30
2018-12-24T11:47:44.851Z,10.82
2018-12-24T11:48:52.014Z,9.25
2018-12-24T11:50:00.310Z,8.85
2018-12-24T11:51:06.941Z,11.75
2018-12-24T11:52:13.726Z,11.83
2018-12-24T11:53:20.739Z,11.93
2018-12-24T11:54:28.306Z,16.25
2018-12-24T11:55:35.771Z,15.72
2018-12-24T11:56:42.902Z,12.82
2018-12-24T11:57:54.460Z,11.10
2018-12-24T11:59:08.035Z,13.05
2018-12-24T12:00:18.724Z,10.40
2018-12-24T12:01:27.456Z,11.48
2018-12-24T12:02:36.788Z,10.28
2018-12-24T12:03:46.203Z,11.75
2018-12-24T12:04:54.862Z,9.38
2018-12-24T12:06:04.915Z,8.83
2018-12-24T12:07:16.376Z,11.38
2018-12-24T12:08:26.899Z,13.08
2018-12-24T12:09:35.383Z,10.95
2018-12-24T12:10:44.843Z,11.60
2018-12-24T12:11:54.536Z,11.73
2018-12-24T12:13:06.532Z,11.73
2018-12-24T12:14:17.152Z,10.60
2018-12-24T12:15:26.480Z,8.20
2018-12-24T12:16:35.486Z,8.55
2018-12-24T12:17:42.484Z,11.43
2018-12-24T12:18:54.902Z,9.83
2018-12-24T12:20:03.293Z,8.80
2018-12-24T12:21:10.620Z,10.93
2018-12-24T12:22:21.554Z,8.93
2018-12-24T12:23:27.544Z,10.03
2018-12-24T12:24:36.325Z,9.75
2018-12-24T12:25:45.970Z,11.18
2018-12-24T12:26:52.788Z,8.98
2018-12-24T12:27:59.396Z,8.70
2018-12-24T12:29:09.935Z,8.98
2018-12-24T12:30:20.978Z,8.18
2018-12-24T12:31:28.635Z,8.13
2018-12-24T12:32:35.804Z,9.23
2018-12-24T12:33:42.755Z,9.60
2018-12-24T12:34:49.431Z,8.88
2018-12-24T12:35:55.927Z,9.40
2018-12-24T12:37:06.976Z,9.33
2018-12-24T12:38:15.917Z,10.55
2018-12-24T12:39:23.444Z,8.35
2018-12-24T12:40:33.027Z,10.95
2018-12-24T12:41:42.860Z,10.13
2018-12-24T12:42:51.664Z,12.63
2018-12-24T12:44:00.537Z,10.72
2018-12-24T12:45:09.976Z,8.98
2018-12-24T12:46:20.931Z,8.95
2018-12-24T12:47:30.816Z,8.13
2018-12-24T12:48:40.375Z,9.05
2018-12-24T12:49:47.301Z,9.45
2018-12-24T12:50:55.640Z,7.92
2018-12-24T12:52:02.256Z,8.23
2018-12-24T12:53:08.758Z,10.82
2018-12-24T12:54:15.204Z,9.93
2018-12-24T12:55:21.780Z,9.43
2018-12-24T12:56:28.608Z,10.58
2018-12-24T12:57:36.382Z,8.70
2018-12-24T12:58:44.976Z,10.30
2018-12-24T12:59:55.693Z,7.95
2018-12-24T13:01:06.112Z,8.18
2018-12-24T13:02:14.590Z,7.90
2018-12-24T13:03:23.734Z,10.15
2018-12-24T13:04:35.186Z,10.78
2018-12-24T13:05:46.432Z,10.90
2018-12-24T13:06:56.396Z,10.75
2018-12-24T13:08:06.401Z,7.70
2018-12-24T13:09:16.651Z,9.93
2018-12-24T13:10:26.706Z,7.78
2018-12-24T13:11:38.108Z,8.15
2018-12-24T13:12:47.620Z,8.33
2018-12-24T13:13:58.476Z,9.75
2018-12-24T13:15:05.289Z,9.25
2018-12-24T13:16:12.042Z,9.90
2018-12-24T13:17:18.676Z,11.22
2018-12-24T13:18:30.044Z,8.83
2018-12-24T13:19:42.112Z,10.30
2018-12-24T13:20:52.946Z,12.55
2018-12-24T13:22:04.386Z,9.28
2018-12-24T13:23:11.894Z,8.33
2018-12-24T13:24:29.419Z,10.58
2018-12-24T13:25:39.166Z,8.03
2018-12-24T13:26:47.879Z,7.70
2018-12-24T13:27:55.664Z,8.65
2018-12-24T13:29:03.283Z,9.30
2018-12-24T13:30:11.175Z,10.68
2018-12-24T13:31:19.904Z,6.62
2018-12-24T13:32:28.643Z,8.48
2018-12-24T13:33:37.915Z,8.60
2018-12-24T13:34:46.397Z,6.05
2018-12-24T13:35:56.159Z,10.08
2018-12-24T13:37:04.808Z,7.45
2018-12-24T13:38:15.180Z,8.65
2018-12-24T13:39:23.643Z,8.25
2018-12-24T13:40:33.657Z,9.48
2018-12-24T13:41:55.318Z,10.28
2018-12-24T13:43:09.915Z,10.90
2018-12-24T13:44:16.677Z,10.00
2018-12-24T13:45:23.510Z,10.93
2018-12-24T13:46:30.115Z,10.53
2018-12-24T13:47:36.848Z,10.03
2018-12-24T13:48:43.540Z,10.63
2018-12-24T13:49:51.945Z,12.80
2018-12-24T13:50:58.376Z,10.78
2018-12-24T13:52:07.570Z,9.83
2018-12-24T13:53:14.462Z,10.35
2018-12-24T13:54:23.557Z,12.95
2018-12-24T13:55:30.242Z,10.05
2018-12-24T13:56:36.923Z,12.70
2018-12-24T13:57:43.582Z,15.13
2018-12-24T13:58:50.061Z,13.68
2018-12-24T13:59:56.761Z,10.82
2018-12-24T14:01:03.621Z,11.05
2018-12-24T14:02:10.251Z,11.48
2018-12-24T14:03:16.846Z,11.57
2018-12-24T14:04:23.752Z,10.53
2018-12-24T14:05:36.184Z,10.50
2018-12-24T14:06:42.709Z,10.90
2018-12-24T14:07:49.330Z,8.68
2018-12-24T14:08:55.961Z,10.48
2018-12-24T14:10:04.074Z,10.53
2018-12-24T14:11:10.919Z,12.28
2018-12-24T14:12:18.160Z,11.60
2018-12-24T14:13:27.882Z,12.23
2018-12-24T14:14:36.254Z,14.73
2018-12-24T14:15:43.057Z,15.15
2018-12-24T14:16:50.795Z,14.87
2018-12-24T14:17:57.555Z,18.02
2018-12-24T14:19:08.760Z,15.35
2018-12-24T14:20:17.955Z,14.63
2018-12-24T14:21:27.220Z,18.02
2018-12-24T14:22:34.080Z,21.30
2018-12-24T14:23:43.620Z,17.87
2018-12-24T14:24:51.759Z,17.67
2018-12-24T14:25:59.295Z,15.15
2018-12-24T14:27:06.434Z,13.05
2018-12-24T14:28:14.245Z,13.25
2018-12-24T14:29:21.051Z,12.37
2018-12-24T14:30:30.605Z,14.47
2018-12-24T14:31:38.469Z,13.60
2018-12-24T14:32:46.495Z,13.98
2018-12-24T14:33:53.098Z,15.93
2018-12-24T14:34:59.916Z,15.60
2018-12-24T14:36:11.244Z,13.65
2018-12-24T14:37:20.608Z,13.53
2018-12-24T14:38:27.359Z,13.53
2018-12-24T14:39:34.373Z,12.63
2018-12-24T14:40:41.075Z,11.85
2018-12-24T14:41:48.906Z,15.45
2018-12-24T14:42:58.394Z,13.93
2018-12-24T14:44:04.972Z,12.07
2018-12-24T14:45:11.733Z,13.65
2018-12-24T14:46:25.599Z,12.55
2018-12-24T14:47:28.375Z,13.50
2018-12-24T14:48:34.959Z,12.28